sensor_id;sensor_type;location;lat;lon;timestamp;P1;durP1;ratioP1;P2;durP2;ratioP2
62925;SDS011;55732;52.248;-0.844;2023-06-26T00:01:14;3.30;;;1.50;;
62925;SDS011;55732;52.248;-0.844;2023-06-26T00:03:40;2.80;;;1.40;;
62925;SDS011;55732;52.248;-0.844;2023-06-26T00:06:05;3.30;;;1.30;;
62925;SDS011;55732;52.248;-0.844;2023-06-26T00:08:31;2.60;;;1.30;;
62925;SDS011;55732;52.248;-0.844;2023-06-26T00:10:56;2.00;;;1.40;;
62925;SDS011;55732;52.248;-0.844;2023-06-26T00:13:22;2.10;;;1.30;;
62925;SDS011;55732;52.248;-0.844;2023-06-26T00:15:49;4.50;;;1.40;;
62925;SDS011;55732;52.248;-0.844;2023-06-26T00:18:15;2.80;;;1.50;;
62925;SDS011;55732;52.248;-0.844;2023-06-26T00:20:41;3.90;;;1.40;;
62925;SDS011;55732;52.248;-0.844;2023-06-26T00:23:06;3.10;;;1.60;;
62925;SDS011;55732;52.248;-0.844;2023-06-26T00:25:35;5.90;;;1.50;;
62925;SDS011;55732;52.248;-0.844;2023-06-26T00:28:01;4.80;;;1.60;;
62925;SDS011;55732;52.248;-0.844;2023-06-26T00:30:26;5.70;;;1.30;;
62925;SDS011;55732;52.248;-0.844;2023-06-26T00:32:52;4.10;;;1.60;;
62925;SDS011;55732;52.248;-0.844;2023-06-26T00:35:17;3.40;;;1.60;;
62925;SDS011;55732;52.248;-0.844;2023-06-26T00:37:44;4.30;;;1.60;;
62925;SDS011;55732;52.248;-0.844;2023-06-26T00:40:09;3.30;;;1.70;;
62925;SDS011;55732;52.248;-0.844;2023-06-26T00:42:35;6.20;;;1.60;;
62925;SDS011;55732;52.248;-0.844;2023-06-26T00:45:00;3.50;;;1.40;;
62925;SDS011;55732;52.248;-0.844;2023-06-26T00:47:26;3.00;;;1.50;;
62925;SDS011;55732;52.248;-0.844;2023-06-26T00:49:52;2.60;;;1.30;;
62925;SDS011;55732;52.248;-0.844;2023-06-26T00:52:19;2.80;;;1.40;;
62925;SDS011;55732;52.248;-0.844;2023-06-26T00:54:45;3.60;;;1.50;;
62925;SDS011;55732;52.248;-0.844;2023-06-26T00:57:11;3.10;;;1.60;;
62925;SDS011;55732;52.248;-0.844;2023-06-26T00:59:37;2.40;;;1.40;;
62925;SDS011;55732;52.248;-0.844;2023-06-26T01:02:03;4.00;;;1.60;;
62925;SDS011;55732;52.248;-0.844;2023-06-26T01:04:29;4.30;;;1.50;;
62925;SDS011;55732;52.248;-0.844;2023-06-26T01:06:57;4.00;;;1.60;;
62925;SDS011;55732;52.248;-0.844;2023-06-26T01:09:24;3.50;;;1.60;;
62925;SDS011;55732;52.248;-0.844;2023-06-26T01:11:51;1.90;;;1.40;;
62925;SDS011;55732;52.248;-0.844;2023-06-26T01:14:17;2.20;;;1.50;;
62925;SDS011;55732;52.248;-0.844;2023-06-26T01:16:43;4.30;;;1.70;;
62925;SDS011;55732;52.248;-0.844;2023-06-26T01:19:24;5.60;;;1.40;;
62925;SDS011;55732;52.248;-0.844;2023-06-26T01:21:58;4.70;;;1.40;;
62925;SDS011;55732;52.248;-0.844;2023-06-26T01:24:39;2.90;;;1.40;;
62925;SDS011;55732;52.248;-0.844;2023-06-26T01:27:17;1.70;;;1.60;;
62925;SDS011;55732;52.248;-0.844;2023-06-26T01:29:47;2.90;;;1.50;;
62925;SDS011;55732;52.248;-0.844;2023-06-26T01:32:14;5.50;;;2.00;;
62925;SDS011;55732;52.248;-0.844;2023-06-26T01:34:40;1.80;;;1.30;;
62925;SDS011;55732;52.248;-0.844;2023-06-26T01:37:07;2.60;;;1.50;;
62925;SDS011;55732;52.248;-0.844;2023-06-26T01:39:32;2.30;;;1.40;;
62925;SDS011;55732;52.248;-0.844;2023-06-26T01:41:58;2.80;;;1.60;;
62925;SDS011;55732;52.248;-0.844;2023-06-26T01:44:31;2.70;;;1.60;;
62925;SDS011;55732;52.248;-0.844;2023-06-26T01:49:48;3.70;;;1.60;;
62925;SDS011;55732;52.248;-0.844;2023-06-26T01:58:04;1.90;;;1.30;;
62925;SDS011;55732;52.248;-0.844;2023-06-26T02:00:32;4.20;;;1.70;;
62925;SDS011;55732;52.248;-0.844;2023-06-26T02:02:59;1.80;;;1.70;;
62925;SDS011;55732;52.248;-0.844;2023-06-26T02:05:24;6.90;;;1.80;;
62925;SDS011;55732;52.248;-0.844;2023-06-26T02:07:50;4.50;;;1.90;;
62925;SDS011;55732;52.248;-0.844;2023-06-26T02:10:16;4.30;;;1.60;;
62925;SDS011;55732;52.248;-0.844;2023-06-26T02:12:42;3.10;;;1.70;;
62925;SDS011;55732;52.248;-0.844;2023-06-26T02:15:07;4.80;;;1.60;;
62925;SDS011;55732;52.248;-0.844;2023-06-26T02:17:33;5.30;;;1.70;;
62925;SDS011;55732;52.248;-0.844;2023-06-26T02:19:59;4.30;;;1.50;;
62925;SDS011;55732;52.248;-0.844;2023-06-26T02:22:25;6.90;;;1.70;;
62925;SDS011;55732;52.248;-0.844;2023-06-26T02:24:50;6.40;;;1.70;;
62925;SDS011;55732;52.248;-0.844;2023-06-26T02:27:16;3.50;;;1.80;;
62925;SDS011;55732;52.248;-0.844;2023-06-26T02:29:41;4.90;;;1.70;;
62925;SDS011;55732;52.248;-0.844;2023-06-26T02:32:07;3.20;;;1.80;;
62925;SDS011;55732;52.248;-0.844;2023-06-26T02:34:33;3.70;;;1.80;;
62925;SDS011;55732;52.248;-0.844;2023-06-26T02:36:59;3.60;;;1.90;;
62925;SDS011;55732;52.248;-0.844;2023-06-26T02:39:25;5.50;;;1.80;;
62925;SDS011;55732;52.248;-0.844;2023-06-26T02:41:52;4.00;;;1.50;;
62925;SDS011;55732;52.248;-0.844;2023-06-26T02:44:17;5.80;;;2.10;;
62925;SDS011;55732;52.248;-0.844;2023-06-26T02:46:43;7.20;;;2.00;;
62925;SDS011;55732;52.248;-0.844;2023-06-26T02:49:09;5.70;;;2.00;;
62925;SDS011;55732;52.248;-0.844;2023-06-26T02:51:34;6.70;;;1.90;;
62925;SDS011;55732;52.248;-0.844;2023-06-26T02:54:00;4.90;;;1.90;;
62925;SDS011;55732;52.248;-0.844;2023-06-26T02:56:26;6.30;;;1.90;;
62925;SDS011;55732;52.248;-0.844;2023-06-26T03:01:19;2.80;;;1.50;;
62925;SDS011;55732;52.248;-0.844;2023-06-26T03:03:45;3.00;;;1.60;;
62925;SDS011;55732;52.248;-0.844;2023-06-26T03:06:12;4.60;;;1.80;;
62925;SDS011;55732;52.248;-0.844;2023-06-26T03:08:38;4.20;;;2.20;;
62925;SDS011;55732;52.248;-0.844;2023-06-26T03:11:04;5.60;;;2.00;;
62925;SDS011;55732;52.248;-0.844;2023-06-26T03:13:31;6.00;;;2.10;;
62925;SDS011;55732;52.248;-0.844;2023-06-26T03:15:58;5.50;;;1.80;;
62925;SDS011;55732;52.248;-0.844;2023-06-26T03:18:23;7.60;;;2.40;;
62925;SDS011;55732;52.248;-0.844;2023-06-26T03:20:49;3.40;;;1.90;;
62925;SDS011;55732;52.248;-0.844;2023-06-26T03:23:14;5.00;;;1.90;;
62925;SDS011;55732;52.248;-0.844;2023-06-26T03:25:40;6.50;;;1.90;;
62925;SDS011;55732;52.248;-0.844;2023-06-26T03:28:05;9.20;;;2.10;;
62925;SDS011;55732;52.248;-0.844;2023-06-26T03:30:30;3.10;;;2.00;;
62925;SDS011;55732;52.248;-0.844;2023-06-26T03:32:56;3.40;;;2.10;;
62925;SDS011;55732;52.248;-0.844;2023-06-26T03:35:21;5.50;;;2.20;;
62925;SDS011;55732;52.248;-0.844;2023-06-26T03:37:48;9.00;;;2.00;;
62925;SDS011;55732;52.248;-0.844;2023-06-26T03:40:14;8.40;;;2.40;;
62925;SDS011;55732;52.248;-0.844;2023-06-26T03:42:39;7.80;;;2.20;;
62925;SDS011;55732;52.248;-0.844;2023-06-26T03:45:05;5.30;;;2.20;;
62925;SDS011;55732;52.248;-0.844;2023-06-26T03:47:31;3.80;;;1.70;;
62925;SDS011;55732;52.248;-0.844;2023-06-26T03:49:56;6.40;;;2.10;;
62925;SDS011;55732;52.248;-0.844;2023-06-26T03:52:22;8.80;;;3.20;;
62925;SDS011;55732;52.248;-0.844;2023-06-26T03:54:47;6.10;;;2.10;;
62925;SDS011;55732;52.248;-0.844;2023-06-26T03:57:14;6.30;;;2.20;;
62925;SDS011;55732;52.248;-0.844;2023-06-26T03:59:39;5.90;;;1.80;;
62925;SDS011;55732;52.248;-0.844;2023-06-26T04:02:05;6.00;;;2.20;;
62925;SDS011;55732;52.248;-0.844;2023-06-26T04:04:30;5.20;;;2.00;;
62925;SDS011;55732;52.248;-0.844;2023-06-26T04:06:56;5.80;;;2.00;;
62925;SDS011;55732;52.248;-0.844;2023-06-26T04:09:22;5.90;;;2.10;;
62925;SDS011;55732;52.248;-0.844;2023-06-26T04:11:47;6.00;;;2.30;;
62925;SDS011;55732;52.248;-0.844;2023-06-26T04:14:13;5.80;;;2.20;;
62925;SDS011;55732;52.248;-0.844;2023-06-26T04:16:38;8.50;;;2.10;;
62925;SDS011;55732;52.248;-0.844;2023-06-26T04:19:04;5.60;;;2.20;;
62925;SDS011;55732;52.248;-0.844;2023-06-26T04:21:30;6.00;;;2.50;;
62925;SDS011;55732;52.248;-0.844;2023-06-26T04:23:55;6.80;;;2.40;;
62925;SDS011;55732;52.248;-0.844;2023-06-26T04:26:21;6.20;;;2.30;;
62925;SDS011;55732;52.248;-0.844;2023-06-26T04:28:47;4.30;;;2.10;;
62925;SDS011;55732;52.248;-0.844;2023-06-26T04:31:12;6.80;;;2.20;;
62925;SDS011;55732;52.248;-0.844;2023-06-26T04:33:38;6.10;;;2.10;;
62925;SDS011;55732;52.248;-0.844;2023-06-26T04:36:04;7.10;;;1.90;;
62925;SDS011;55732;52.248;-0.844;2023-06-26T04:38:30;6.10;;;2.10;;
62925;SDS011;55732;52.248;-0.844;2023-06-26T04:40:59;9.10;;;2.30;;
62925;SDS011;55732;52.248;-0.844;2023-06-26T04:43:25;7.70;;;2.20;;
62925;SDS011;55732;52.248;-0.844;2023-06-26T04:45:51;6.30;;;2.00;;
62925;SDS011;55732;52.248;-0.844;2023-06-26T04:48:16;4.70;;;1.90;;
62925;SDS011;55732;52.248;-0.844;2023-06-26T04:50:42;6.10;;;2.10;;
62925;SDS011;55732;52.248;-0.844;2023-06-26T04:53:07;6.10;;;2.00;;
62925;SDS011;55732;52.248;-0.844;2023-06-26T04:55:33;7.20;;;2.10;;
62925;SDS011;55732;52.248;-0.844;2023-06-26T04:57:58;6.20;;;2.20;;
62925;SDS011;55732;52.248;-0.844;2023-06-26T05:00:24;7.70;;;2.30;;
62925;SDS011;55732;52.248;-0.844;2023-06-26T05:02:50;7.00;;;2.10;;
62925;SDS011;55732;52.248;-0.844;2023-06-26T05:05:26;7.50;;;2.90;;
62925;SDS011;55732;52.248;-0.844;2023-06-26T05:07:56;9.60;;;2.30;;
62925;SDS011;55732;52.248;-0.844;2023-06-26T05:10:21;7.20;;;2.40;;
62925;SDS011;55732;52.248;-0.844;2023-06-26T05:12:47;4.40;;;1.80;;
62925;SDS011;55732;52.248;-0.844;2023-06-26T05:15:13;7.10;;;2.00;;
62925;SDS011;55732;52.248;-0.844;2023-06-26T05:17:39;4.40;;;2.10;;
62925;SDS011;55732;52.248;-0.844;2023-06-26T05:20:04;8.80;;;2.00;;
62925;SDS011;55732;52.248;-0.844;2023-06-26T05:22:31;7.70;;;2.20;;
62925;SDS011;55732;52.248;-0.844;2023-06-26T05:24:58;5.60;;;2.10;;
62925;SDS011;55732;52.248;-0.844;2023-06-26T05:29:51;7.70;;;1.90;;
62925;SDS011;55732;52.248;-0.844;2023-06-26T05:32:17;10.60;;;2.40;;
62925;SDS011;55732;52.248;-0.844;2023-06-26T05:34:45;7.50;;;2.30;;
62925;SDS011;55732;52.248;-0.844;2023-06-26T05:37:14;6.90;;;2.40;;
62925;SDS011;55732;52.248;-0.844;2023-06-26T05:39:45;6.90;;;2.20;;
62925;SDS011;55732;52.248;-0.844;2023-06-26T05:42:11;7.70;;;1.90;;
62925;SDS011;55732;52.248;-0.844;2023-06-26T05:44:39;7.60;;;2.00;;
62925;SDS011;55732;52.248;-0.844;2023-06-26T05:47:04;5.20;;;1.90;;
62925;SDS011;55732;52.248;-0.844;2023-06-26T05:49:30;5.50;;;1.90;;
62925;SDS011;55732;52.248;-0.844;2023-06-26T05:51:56;5.90;;;2.20;;
62925;SDS011;55732;52.248;-0.844;2023-06-26T05:54:22;6.60;;;1.80;;
62925;SDS011;55732;52.248;-0.844;2023-06-26T05:59:16;4.30;;;1.90;;
62925;SDS011;55732;52.248;-0.844;2023-06-26T06:01:42;9.10;;;2.10;;
62925;SDS011;55732;52.248;-0.844;2023-06-26T06:04:08;7.30;;;2.00;;
62925;SDS011;55732;52.248;-0.844;2023-06-26T06:06:33;6.60;;;2.30;;
62925;SDS011;55732;52.248;-0.844;2023-06-26T06:08:58;3.50;;;2.00;;
62925;SDS011;55732;52.248;-0.844;2023-06-26T06:11:24;6.30;;;1.90;;
62925;SDS011;55732;52.248;-0.844;2023-06-26T06:13:49;5.40;;;1.90;;
62925;SDS011;55732;52.248;-0.844;2023-06-26T06:16:14;6.60;;;2.00;;
62925;SDS011;55732;52.248;-0.844;2023-06-26T06:18:40;6.70;;;1.90;;
62925;SDS011;55732;52.248;-0.844;2023-06-26T06:21:05;8.10;;;1.90;;
62925;SDS011;55732;52.248;-0.844;2023-06-26T06:23:31;5.90;;;2.00;;
62925;SDS011;55732;52.248;-0.844;2023-06-26T06:25:56;4.40;;;1.80;;
62925;SDS011;55732;52.248;-0.844;2023-06-26T06:28:21;3.30;;;1.60;;
62925;SDS011;55732;52.248;-0.844;2023-06-26T06:30:47;5.30;;;1.70;;
62925;SDS011;55732;52.248;-0.844;2023-06-26T06:33:13;7.10;;;2.60;;
62925;SDS011;55732;52.248;-0.844;2023-06-26T06:35:38;4.70;;;1.80;;
62925;SDS011;55732;52.248;-0.844;2023-06-26T06:38:04;6.40;;;1.70;;
62925;SDS011;55732;52.248;-0.844;2023-06-26T06:40:29;5.60;;;1.90;;
62925;SDS011;55732;52.248;-0.844;2023-06-26T06:42:55;3.00;;;1.60;;
62925;SDS011;55732;52.248;-0.844;2023-06-26T06:45:20;2.80;;;1.60;;
62925;SDS011;55732;52.248;-0.844;2023-06-26T06:47:45;6.30;;;2.20;;
62925;SDS011;55732;52.248;-0.844;2023-06-26T06:50:11;8.50;;;1.80;;
62925;SDS011;55732;52.248;-0.844;2023-06-26T06:52:37;7.70;;;2.10;;
62925;SDS011;55732;52.248;-0.844;2023-06-26T06:55:03;7.60;;;2.30;;
62925;SDS011;55732;52.248;-0.844;2023-06-26T06:57:35;5.50;;;2.00;;
62925;SDS011;55732;52.248;-0.844;2023-06-26T07:00:12;7.70;;;1.90;;
62925;SDS011;55732;52.248;-0.844;2023-06-26T07:02:40;4.20;;;1.90;;
62925;SDS011;55732;52.248;-0.844;2023-06-26T07:05:07;3.10;;;1.90;;
62925;SDS011;55732;52.248;-0.844;2023-06-26T07:07:33;5.80;;;1.90;;
62925;SDS011;55732;52.248;-0.844;2023-06-26T07:09:59;4.50;;;1.70;;
62925;SDS011;55732;52.248;-0.844;2023-06-26T07:12:26;7.30;;;2.10;;
62925;SDS011;55732;52.248;-0.844;2023-06-26T07:14:51;9.50;;;2.30;;
62925;SDS011;55732;52.248;-0.844;2023-06-26T07:17:17;7.60;;;1.80;;
62925;SDS011;55732;52.248;-0.844;2023-06-26T07:19:42;7.60;;;2.20;;
62925;SDS011;55732;52.248;-0.844;2023-06-26T07:22:08;4.60;;;2.00;;
62925;SDS011;55732;52.248;-0.844;2023-06-26T07:24:33;7.80;;;1.90;;
62925;SDS011;55732;52.248;-0.844;2023-06-26T07:26:59;5.20;;;1.70;;
62925;SDS011;55732;52.248;-0.844;2023-06-26T07:29:25;4.60;;;1.90;;
62925;SDS011;55732;52.248;-0.844;2023-06-26T07:31:51;3.90;;;1.50;;
62925;SDS011;55732;52.248;-0.844;2023-06-26T07:34:16;7.00;;;1.70;;
62925;SDS011;55732;52.248;-0.844;2023-06-26T07:36:41;5.20;;;1.90;;
62925;SDS011;55732;52.248;-0.844;2023-06-26T07:39:07;9.90;;;2.50;;
62925;SDS011;55732;52.248;-0.844;2023-06-26T07:41:32;6.30;;;1.90;;
62925;SDS011;55732;52.248;-0.844;2023-06-26T07:43:58;3.50;;;1.60;;
62925;SDS011;55732;52.248;-0.844;2023-06-26T07:46:24;3.60;;;1.80;;
62925;SDS011;55732;52.248;-0.844;2023-06-26T07:48:49;3.80;;;1.60;;
62925;SDS011;55732;52.248;-0.844;2023-06-26T07:51:14;5.50;;;1.90;;
62925;SDS011;55732;52.248;-0.844;2023-06-26T07:53:40;6.60;;;2.20;;
62925;SDS011;55732;52.248;-0.844;2023-06-26T07:56:06;5.90;;;1.70;;
62925;SDS011;55732;52.248;-0.844;2023-06-26T07:58:31;4.30;;;1.70;;
62925;SDS011;55732;52.248;-0.844;2023-06-26T08:00:57;5.20;;;2.00;;
62925;SDS011;55732;52.248;-0.844;2023-06-26T08:03:22;3.40;;;1.50;;
62925;SDS011;55732;52.248;-0.844;2023-06-26T08:05:48;6.20;;;1.80;;
62925;SDS011;55732;52.248;-0.844;2023-06-26T08:08:14;4.20;;;1.80;;
62925;SDS011;55732;52.248;-0.844;2023-06-26T08:10:39;5.50;;;1.70;;
62925;SDS011;55732;52.248;-0.844;2023-06-26T08:13:04;4.60;;;1.90;;
62925;SDS011;55732;52.248;-0.844;2023-06-26T08:15:30;5.30;;;1.70;;
62925;SDS011;55732;52.248;-0.844;2023-06-26T08:17:55;5.50;;;1.50;;
62925;SDS011;55732;52.248;-0.844;2023-06-26T08:20:21;3.80;;;1.70;;
62925;SDS011;55732;52.248;-0.844;2023-06-26T08:22:47;5.80;;;1.70;;
62925;SDS011;55732;52.248;-0.844;2023-06-26T08:25:15;5.40;;;1.70;;
62925;SDS011;55732;52.248;-0.844;2023-06-26T08:27:40;3.10;;;1.60;;
62925;SDS011;55732;52.248;-0.844;2023-06-26T08:30:06;5.00;;;1.40;;
62925;SDS011;55732;52.248;-0.844;2023-06-26T08:32:31;4.70;;;1.70;;
62925;SDS011;55732;52.248;-0.844;2023-06-26T08:34:57;4.10;;;1.40;;
62925;SDS011;55732;52.248;-0.844;2023-06-26T08:37:22;4.00;;;1.70;;
62925;SDS011;55732;52.248;-0.844;2023-06-26T08:39:48;2.40;;;1.40;;
62925;SDS011;55732;52.248;-0.844;2023-06-26T08:42:14;4.90;;;1.70;;
62925;SDS011;55732;52.248;-0.844;2023-06-26T08:44:39;2.00;;;1.40;;
62925;SDS011;55732;52.248;-0.844;2023-06-26T08:47:04;5.50;;;1.70;;
62925;SDS011;55732;52.248;-0.844;2023-06-26T08:49:51;3.80;;;1.40;;
62925;SDS011;55732;52.248;-0.844;2023-06-26T08:52:35;3.20;;;1.70;;
62925;SDS011;55732;52.248;-0.844;2023-06-26T08:55:06;4.30;;;1.50;;
62925;SDS011;55732;52.248;-0.844;2023-06-26T08:57:35;3.90;;;1.40;;
62925;SDS011;55732;52.248;-0.844;2023-06-26T09:00:02;2.70;;;1.50;;
62925;SDS011;55732;52.248;-0.844;2023-06-26T09:04:54;4.40;;;1.50;;
62925;SDS011;55732;52.248;-0.844;2023-06-26T09:07:20;6.20;;;1.90;;
62925;SDS011;55732;52.248;-0.844;2023-06-26T09:09:45;4.00;;;1.60;;
62925;SDS011;55732;52.248;-0.844;2023-06-26T09:12:11;7.40;;;2.00;;
62925;SDS011;55732;52.248;-0.844;2023-06-26T09:14:38;5.80;;;1.70;;
62925;SDS011;55732;52.248;-0.844;2023-06-26T09:17:04;8.20;;;1.70;;
62925;SDS011;55732;52.248;-0.844;2023-06-26T09:19:29;3.60;;;1.70;;
62925;SDS011;55732;52.248;-0.844;2023-06-26T09:21:54;10.00;;;1.90;;
62925;SDS011;55732;52.248;-0.844;2023-06-26T09:24:21;5.00;;;1.50;;
62925;SDS011;55732;52.248;-0.844;2023-06-26T09:26:47;3.10;;;1.50;;
62925;SDS011;55732;52.248;-0.844;2023-06-26T09:29:14;3.10;;;1.60;;
62925;SDS011;55732;52.248;-0.844;2023-06-26T09:31:40;4.10;;;1.50;;
62925;SDS011;55732;52.248;-0.844;2023-06-26T09:34:06;4.40;;;1.80;;
62925;SDS011;55732;52.248;-0.844;2023-06-26T09:36:32;4.20;;;1.60;;
62925;SDS011;55732;52.248;-0.844;2023-06-26T09:39:02;2.40;;;1.50;;
62925;SDS011;55732;52.248;-0.844;2023-06-26T09:41:35;6.10;;;1.80;;
62925;SDS011;55732;52.248;-0.844;2023-06-26T09:44:03;5.40;;;1.70;;
62925;SDS011;55732;52.248;-0.844;2023-06-26T09:46:29;6.60;;;1.80;;
62925;SDS011;55732;52.248;-0.844;2023-06-26T09:48:59;8.20;;;1.90;;
62925;SDS011;55732;52.248;-0.844;2023-06-26T09:51:28;4.20;;;1.70;;
62925;SDS011;55732;52.248;-0.844;2023-06-26T09:53:54;5.20;;;1.70;;
62925;SDS011;55732;52.248;-0.844;2023-06-26T09:56:19;3.80;;;1.80;;
62925;SDS011;55732;52.248;-0.844;2023-06-26T10:01:12;3.80;;;1.80;;
62925;SDS011;55732;52.248;-0.844;2023-06-26T10:03:38;7.80;;;2.00;;
62925;SDS011;55732;52.248;-0.844;2023-06-26T10:06:03;6.40;;;1.70;;
62925;SDS011;55732;52.248;-0.844;2023-06-26T10:08:29;2.50;;;1.40;;
62925;SDS011;55732;52.248;-0.844;2023-06-26T10:10:56;7.00;;;2.10;;
62925;SDS011;55732;52.248;-0.844;2023-06-26T10:13:25;4.40;;;1.70;;
62925;SDS011;55732;52.248;-0.844;2023-06-26T10:15:56;4.50;;;1.60;;
62925;SDS011;55732;52.248;-0.844;2023-06-26T10:18:24;3.20;;;1.40;;
62925;SDS011;55732;52.248;-0.844;2023-06-26T10:20:53;5.40;;;1.60;;
62925;SDS011;55732;52.248;-0.844;2023-06-26T10:23:22;10.40;;;1.70;;
62925;SDS011;55732;52.248;-0.844;2023-06-26T10:25:48;3.30;;;1.70;;
62925;SDS011;55732;52.248;-0.844;2023-06-26T10:28:17;6.50;;;1.70;;
62925;SDS011;55732;52.248;-0.844;2023-06-26T10:30:45;3.30;;;1.30;;
62925;SDS011;55732;52.248;-0.844;2023-06-26T10:33:12;4.90;;;1.70;;
62925;SDS011;55732;52.248;-0.844;2023-06-26T10:35:45;4.40;;;1.50;;
62925;SDS011;55732;52.248;-0.844;2023-06-26T10:38:11;4.30;;;1.50;;
62925;SDS011;55732;52.248;-0.844;2023-06-26T10:40:43;4.30;;;1.60;;
62925;SDS011;55732;52.248;-0.844;2023-06-26T10:43:11;4.60;;;1.50;;
62925;SDS011;55732;52.248;-0.844;2023-06-26T10:48:08;5.90;;;1.80;;
62925;SDS011;55732;52.248;-0.844;2023-06-26T10:50:33;4.10;;;1.40;;
62925;SDS011;55732;52.248;-0.844;2023-06-26T10:53:08;3.90;;;1.90;;
62925;SDS011;55732;52.248;-0.844;2023-06-26T10:56:03;3.90;;;1.50;;
62925;SDS011;55732;52.248;-0.844;2023-06-26T10:58:33;6.00;;;1.50;;
62925;SDS011;55732;52.248;-0.844;2023-06-26T11:03:41;3.40;;;1.30;;
62925;SDS011;55732;52.248;-0.844;2023-06-26T11:06:14;5.50;;;1.60;;
62925;SDS011;55732;52.248;-0.844;2023-06-26T11:14:23;2.40;;;1.50;;
62925;SDS011;55732;52.248;-0.844;2023-06-26T11:16:50;4.90;;;1.70;;
62925;SDS011;55732;52.248;-0.844;2023-06-26T11:19:19;2.80;;;1.50;;
62925;SDS011;55732;52.248;-0.844;2023-06-26T11:21:45;7.30;;;1.70;;
62925;SDS011;55732;52.248;-0.844;2023-06-26T11:24:11;3.10;;;1.50;;
62925;SDS011;55732;52.248;-0.844;2023-06-26T11:26:41;6.90;;;2.40;;
62925;SDS011;55732;52.248;-0.844;2023-06-26T11:29:08;4.80;;;1.60;;
62925;SDS011;55732;52.248;-0.844;2023-06-26T11:31:35;4.30;;;1.70;;
62925;SDS011;55732;52.248;-0.844;2023-06-26T11:34:03;1.70;;;1.40;;
62925;SDS011;55732;52.248;-0.844;2023-06-26T11:36:34;3.90;;;1.30;;
62925;SDS011;55732;52.248;-0.844;2023-06-26T11:39:02;3.10;;;1.40;;
62925;SDS011;55732;52.248;-0.844;2023-06-26T11:41:31;3.40;;;1.40;;
62925;SDS011;55732;52.248;-0.844;2023-06-26T11:44:02;3.80;;;1.50;;
62925;SDS011;55732;52.248;-0.844;2023-06-26T11:46:32;5.20;;;1.60;;
62925;SDS011;55732;52.248;-0.844;2023-06-26T11:51:28;2.30;;;1.40;;
62925;SDS011;55732;52.248;-0.844;2023-06-26T11:53:54;4.90;;;1.70;;
62925;SDS011;55732;52.248;-0.844;2023-06-26T11:56:19;2.70;;;1.40;;
62925;SDS011;55732;52.248;-0.844;2023-06-26T11:58:57;2.90;;;1.70;;
62925;SDS011;55732;52.248;-0.844;2023-06-26T12:01:26;2.50;;;1.30;;
62925;SDS011;55732;52.248;-0.844;2023-06-26T12:03:58;2.90;;;1.30;;
62925;SDS011;55732;52.248;-0.844;2023-06-26T12:06:26;2.20;;;1.30;;
62925;SDS011;55732;52.248;-0.844;2023-06-26T12:08:53;5.40;;;1.80;;
62925;SDS011;55732;52.248;-0.844;2023-06-26T12:11:19;3.00;;;1.50;;
62925;SDS011;55732;52.248;-0.844;2023-06-26T12:13:47;6.40;;;1.40;;
62925;SDS011;55732;52.248;-0.844;2023-06-26T12:16:14;3.50;;;1.40;;
62925;SDS011;55732;52.248;-0.844;2023-06-26T12:18:39;6.40;;;1.60;;
62925;SDS011;55732;52.248;-0.844;2023-06-26T12:21:05;3.50;;;1.50;;
62925;SDS011;55732;52.248;-0.844;2023-06-26T12:23:32;3.20;;;1.20;;
62925;SDS011;55732;52.248;-0.844;2023-06-26T12:26:18;5.80;;;1.60;;
62925;SDS011;55732;52.248;-0.844;2023-06-26T12:28:44;5.90;;;1.40;;
62925;SDS011;55732;52.248;-0.844;2023-06-26T12:31:17;2.70;;;1.50;;
62925;SDS011;55732;52.248;-0.844;2023-06-26T12:33:45;3.50;;;1.60;;
62925;SDS011;55732;52.248;-0.844;2023-06-26T12:36:11;2.10;;;1.40;;
62925;SDS011;55732;52.248;-0.844;2023-06-26T12:38:37;4.70;;;1.70;;
62925;SDS011;55732;52.248;-0.844;2023-06-26T12:41:03;6.20;;;1.80;;
62925;SDS011;55732;52.248;-0.844;2023-06-26T12:43:29;3.60;;;1.80;;
62925;SDS011;55732;52.248;-0.844;2023-06-26T12:45:57;2.40;;;1.20;;
62925;SDS011;55732;52.248;-0.844;2023-06-26T12:51:16;5.30;;;1.30;;
62925;SDS011;55732;52.248;-0.844;2023-06-26T12:53:43;5.90;;;1.70;;
62925;SDS011;55732;52.248;-0.844;2023-06-26T12:56:09;4.30;;;1.60;;
62925;SDS011;55732;52.248;-0.844;2023-06-26T12:58:35;4.50;;;1.40;;
62925;SDS011;55732;52.248;-0.844;2023-06-26T13:01:03;3.40;;;1.50;;
62925;SDS011;55732;52.248;-0.844;2023-06-26T13:03:29;4.80;;;1.50;;
62925;SDS011;55732;52.248;-0.844;2023-06-26T13:05:55;4.70;;;1.50;;
62925;SDS011;55732;52.248;-0.844;2023-06-26T13:08:20;6.60;;;1.70;;
62925;SDS011;55732;52.248;-0.844;2023-06-26T13:10:45;2.40;;;1.20;;
62925;SDS011;55732;52.248;-0.844;2023-06-26T13:13:11;4.40;;;1.30;;
62925;SDS011;55732;52.248;-0.844;2023-06-26T13:15:36;4.50;;;1.70;;
62925;SDS011;55732;52.248;-0.844;2023-06-26T13:18:02;6.60;;;1.70;;
62925;SDS011;55732;52.248;-0.844;2023-06-26T13:20:27;2.50;;;1.50;;
62925;SDS011;55732;52.248;-0.844;2023-06-26T13:22:53;3.90;;;1.40;;
62925;SDS011;55732;52.248;-0.844;2023-06-26T13:25:19;5.30;;;1.80;;
62925;SDS011;55732;52.248;-0.844;2023-06-26T13:27:45;5.30;;;1.50;;
62925;SDS011;55732;52.248;-0.844;2023-06-26T13:30:11;2.00;;;1.30;;
62925;SDS011;55732;52.248;-0.844;2023-06-26T13:32:37;4.20;;;1.50;;
62925;SDS011;55732;52.248;-0.844;2023-06-26T13:35:02;2.80;;;1.20;;
62925;SDS011;55732;52.248;-0.844;2023-06-26T13:37:28;6.30;;;1.60;;
62925;SDS011;55732;52.248;-0.844;2023-06-26T13:39:54;3.60;;;1.50;;
62925;SDS011;55732;52.248;-0.844;2023-06-26T13:42:19;2.10;;;1.50;;
62925;SDS011;55732;52.248;-0.844;2023-06-26T13:44:45;4.40;;;1.50;;
62925;SDS011;55732;52.248;-0.844;2023-06-26T13:47:12;3.50;;;1.20;;
62925;SDS011;55732;52.248;-0.844;2023-06-26T13:49:38;2.60;;;1.50;;
62925;SDS011;55732;52.248;-0.844;2023-06-26T13:52:03;2.00;;;1.60;;
62925;SDS011;55732;52.248;-0.844;2023-06-26T13:54:29;4.00;;;1.40;;
62925;SDS011;55732;52.248;-0.844;2023-06-26T13:56:55;6.60;;;1.60;;
62925;SDS011;55732;52.248;-0.844;2023-06-26T13:59:23;4.40;;;1.40;;
62925;SDS011;55732;52.248;-0.844;2023-06-26T14:01:50;6.30;;;1.60;;
62925;SDS011;55732;52.248;-0.844;2023-06-26T14:04:16;3.70;;;1.40;;
62925;SDS011;55732;52.248;-0.844;2023-06-26T14:06:41;2.40;;;1.30;;
62925;SDS011;55732;52.248;-0.844;2023-06-26T14:09:07;2.30;;;1.40;;
62925;SDS011;55732;52.248;-0.844;2023-06-26T14:11:33;5.70;;;1.60;;
62925;SDS011;55732;52.248;-0.844;2023-06-26T14:13:59;2.60;;;1.30;;
62925;SDS011;55732;52.248;-0.844;2023-06-26T14:16:25;3.40;;;1.20;;
62925;SDS011;55732;52.248;-0.844;2023-06-26T14:18:50;6.60;;;1.60;;
62925;SDS011;55732;52.248;-0.844;2023-06-26T14:21:16;4.00;;;1.70;;
62925;SDS011;55732;52.248;-0.844;2023-06-26T14:23:42;2.80;;;1.40;;
62925;SDS011;55732;52.248;-0.844;2023-06-26T14:26:07;1.90;;;1.00;;
62925;SDS011;55732;52.248;-0.844;2023-06-26T14:28:33;2.30;;;1.30;;
62925;SDS011;55732;52.248;-0.844;2023-06-26T14:30:58;1.60;;;1.30;;
62925;SDS011;55732;52.248;-0.844;2023-06-26T14:33:24;2.10;;;1.60;;
62925;SDS011;55732;52.248;-0.844;2023-06-26T14:35:49;2.50;;;1.70;;
62925;SDS011;55732;52.248;-0.844;2023-06-26T14:38:14;3.10;;;1.50;;
62925;SDS011;55732;52.248;-0.844;2023-06-26T14:40:40;4.70;;;1.30;;
62925;SDS011;55732;52.248;-0.844;2023-06-26T14:43:05;4.30;;;1.50;;
62925;SDS011;55732;52.248;-0.844;2023-06-26T14:45:30;3.50;;;1.20;;
62925;SDS011;55732;52.248;-0.844;2023-06-26T14:47:56;2.10;;;1.20;;
62925;SDS011;55732;52.248;-0.844;2023-06-26T14:50:21;2.60;;;1.40;;
62925;SDS011;55732;52.248;-0.844;2023-06-26T14:52:47;3.80;;;1.50;;
62925;SDS011;55732;52.248;-0.844;2023-06-26T14:55:12;2.70;;;1.10;;
62925;SDS011;55732;52.248;-0.844;2023-06-26T14:57:38;3.90;;;1.50;;
62925;SDS011;55732;52.248;-0.844;2023-06-26T15:00:03;1.10;;;1.00;;
62925;SDS011;55732;52.248;-0.844;2023-06-26T15:04:55;3.40;;;1.10;;
62925;SDS011;55732;52.248;-0.844;2023-06-26T15:07:21;7.90;;;1.30;;
62925;SDS011;55732;52.248;-0.844;2023-06-26T15:09:46;2.70;;;1.20;;